sensor_id;sensor_type;location;lat;lon;timestamp;pressure;altitude;pressure_sealevel;temperature;humidity
60918;BME280;46792;38.854;-9.384;2023-02-17T00:01:42;100403.47;;;12.85;67.55
60918;BME280;46792;38.854;-9.384;2023-02-17T00:03:43;100404.00;;;12.82;67.48
60918;BME280;46792;38.854;-9.384;2023-02-17T00:05:50;100399.66;;;12.81;67.89
60918;BME280;46792;38.854;-9.384;2023-02-17T00:07:51;100405.06;;;12.81;67.93
60918;BME280;46792;38.854;-9.384;2023-02-17T00:09:51;100389.59;;;12.76;67.96
60918;BME280;46792;38.854;-9.384;2023-02-17T00:11:52;100391.72;;;12.74;67.89
60918;BME280;46792;38.854;-9.384;2023-02-17T00:13:53;100390.94;;;12.73;67.94
60918;BME280;46792;38.854;-9.384;2023-02-17T00:15:53;100393.38;;;12.75;68.03
60918;BME280;46792;38.854;-9.384;2023-02-17T00:17:54;100395.81;;;12.76;67.95
60918;BME280;46792;38.854;-9.384;2023-02-17T00:19:54;100395.81;;;12.76;67.98
60918;BME280;46792;38.854;-9.384;2023-02-17T00:22:13;100388.47;;;12.72;67.59
60918;BME280;46792;38.854;-9.384;2023-02-17T00:24:14;100391.22;;;12.77;67.41
60918;BME280;46792;38.854;-9.384;2023-02-17T00:26:16;100396.88;;;12.75;67.18
60918;BME280;46792;38.854;-9.384;2023-02-17T00:28:17;100387.16;;;12.74;67.08
60918;BME280;46792;38.854;-9.384;2023-02-17T00:30:18;100387.94;;;12.75;66.87
60918;BME280;46792;38.854;-9.384;2023-02-17T00:32:18;100384.44;;;12.74;66.55
60918;BME280;46792;38.854;-9.384;2023-02-17T00:34:19;100379.53;;;12.71;66.29
60918;BME280;46792;38.854;-9.384;2023-02-17T00:36:20;100379.25;;;12.73;66.42
60918;BME280;46792;38.854;-9.384;2023-02-17T00:38:20;100384.13;;;12.71;66.56
60918;BME280;46792;38.854;-9.384;2023-02-17T00:40:21;100374.06;;;12.66;66.81
60918;BME280;46792;38.854;-9.384;2023-02-17T00:42:22;100379.97;;;12.63;66.95
60918;BME280;46792;38.854;-9.384;2023-02-17T00:44:23;100377.53;;;12.61;67.23
60918;BME280;46792;38.854;-9.384;2023-02-17T00:46:25;100382.41;;;12.59;67.27
60918;BME280;46792;38.854;-9.384;2023-02-17T00:48:26;100369.66;;;12.60;67.19
60918;BME280;46792;38.854;-9.384;2023-02-17T00:50:27;100376.72;;;12.61;67.11
60918;BME280;46792;38.854;-9.384;2023-02-17T00:52:46;100378.06;;;12.58;67.18
60918;BME280;46792;38.854;-9.384;2023-02-17T00:54:46;100384.53;;;12.57;67.27
60918;BME280;46792;38.854;-9.384;2023-02-17T00:56:51;100377.47;;;12.51;67.56
60918;BME280;46792;38.854;-9.384;2023-02-17T00:58:51;100379.03;;;12.47;67.78
60918;BME280;46792;38.854;-9.384;2023-02-17T01:00:54;100380.56;;;12.38;68.36
60918;BME280;46792;38.854;-9.384;2023-02-17T01:02:55;100386.22;;;12.36;68.65
60918;BME280;46792;38.854;-9.384;2023-02-17T01:04:56;100378.03;;;12.31;68.54
60918;BME280;46792;38.854;-9.384;2023-02-17T01:06:57;100381.81;;;12.30;68.48
60918;BME280;46792;38.854;-9.384;2023-02-17T01:08:58;100372.63;;;12.31;67.76
60918;BME280;46792;38.854;-9.384;2023-02-17T01:11:19;100379.81;;;12.42;66.77
60918;BME280;46792;38.854;-9.384;2023-02-17T01:13:20;100372.22;;;12.44;66.44
60918;BME280;46792;38.854;-9.384;2023-02-17T01:15:22;100379.03;;;12.47;66.14
60918;BME280;46792;38.854;-9.384;2023-02-17T01:17:23;100378.00;;;12.53;65.86
60918;BME280;46792;38.854;-9.384;2023-02-17T01:19:23;100381.06;;;12.62;65.32
60918;BME280;46792;38.854;-9.384;2023-02-17T01:21:43;100378.63;;;12.60;65.26
60918;BME280;46792;38.854;-9.384;2023-02-17T01:23:45;100374.28;;;12.59;65.29
60918;BME280;46792;38.854;-9.384;2023-02-17T01:25:46;100371.56;;;12.59;65.16
60918;BME280;46792;38.854;-9.384;2023-02-17T01:27:59;100363.44;;;12.59;65.05
60918;BME280;46792;38.854;-9.384;2023-02-17T01:29:59;100366.72;;;12.61;64.52
60918;BME280;46792;38.854;-9.384;2023-02-17T01:32:00;100360.47;;;12.61;64.58
60918;BME280;46792;38.854;-9.384;2023-02-17T01:34:03;100357.50;;;12.62;64.06
60918;BME280;46792;38.854;-9.384;2023-02-17T01:36:06;100361.06;;;12.68;64.14
60918;BME280;46792;38.854;-9.384;2023-02-17T01:38:07;100362.41;;;12.66;64.13
60918;BME280;46792;38.854;-9.384;2023-02-17T01:40:08;100363.78;;;12.68;64.29
60918;BME280;46792;38.854;-9.384;2023-02-17T01:42:18;100365.94;;;12.66;64.29
60918;BME280;46792;38.854;-9.384;2023-02-17T01:47:18;100358.00;;;12.59;64.61
60918;BME280;46792;38.854;-9.384;2023-02-17T01:49:38;100368.34;;;12.62;64.89
60918;BME280;46792;38.854;-9.384;2023-02-17T01:51:39;100365.34;;;12.59;64.55
60918;BME280;46792;38.854;-9.384;2023-02-17T01:56:03;100362.63;;;12.59;64.37
60918;BME280;46792;38.854;-9.384;2023-02-17T01:58:06;100361.59;;;12.65;63.85
60918;BME280;46792;38.854;-9.384;2023-02-17T02:00:10;100358.00;;;12.59;63.83
60918;BME280;46792;38.854;-9.384;2023-02-17T02:02:14;100356.16;;;12.65;63.60
60918;BME280;46792;38.854;-9.384;2023-02-17T02:04:18;100354.81;;;12.62;63.43
60918;BME280;46792;38.854;-9.384;2023-02-17T02:09:34;100354.09;;;12.77;62.85
60918;BME280;46792;38.854;-9.384;2023-02-17T02:11:36;100361.34;;;12.67;62.97
60918;BME280;46792;38.854;-9.384;2023-02-17T02:13:36;100351.25;;;12.62;63.28
60918;BME280;46792;38.854;-9.384;2023-02-17T02:16:13;100353.22;;;12.67;62.98
60918;BME280;46792;38.854;-9.384;2023-02-17T02:32:42;100353.88;;;12.52;63.05
60918;BME280;46792;38.854;-9.384;2023-02-17T02:34:53;100353.31;;;12.50;63.11
60918;BME280;46792;38.854;-9.384;2023-02-17T02:37:17;100353.31;;;12.50;62.72
60918;BME280;46792;38.854;-9.384;2023-02-17T02:39:23;100344.97;;;12.51;62.87
60918;BME280;46792;38.854;-9.384;2023-02-17T02:41:55;100344.63;;;12.47;62.52
60918;BME280;46792;38.854;-9.384;2023-02-17T02:44:08;100345.13;;;12.44;62.81
60918;BME280;46792;38.854;-9.384;2023-02-17T02:46:09;100347.34;;;12.47;62.54
60918;BME280;46792;38.854;-9.384;2023-02-17T02:48:11;100335.72;;;12.47;62.51
60918;BME280;46792;38.854;-9.384;2023-02-17T02:50:19;100335.72;;;12.47;62.13
60918;BME280;46792;38.854;-9.384;2023-02-17T02:55:11;100340.34;;;12.52;61.86
60918;BME280;46792;38.854;-9.384;2023-02-17T02:57:24;100336.28;;;12.49;61.97
60918;BME280;46792;38.854;-9.384;2023-02-17T02:59:45;100337.84;;;12.45;62.50
60918;BME280;46792;38.854;-9.384;2023-02-17T03:08:32;100335.06;;;12.35;62.25
60918;BME280;46792;38.854;-9.384;2023-02-17T03:10:44;100334.22;;;12.34;62.24
60918;BME280;46792;38.854;-9.384;2023-02-17T03:17:34;100316.63;;;12.31;61.27
60918;BME280;46792;38.854;-9.384;2023-02-17T03:19:37;100313.91;;;12.31;61.08
60918;BME280;46792;38.854;-9.384;2023-02-17T03:21:41;100306.00;;;12.25;61.36
60918;BME280;46792;38.854;-9.384;2023-02-17T03:23:43;100315.22;;;12.29;61.41
60918;BME280;46792;38.854;-9.384;2023-02-17T03:25:43;100309.50;;;12.25;61.23
60918;BME280;46792;38.854;-9.384;2023-02-17T03:27:44;100310.00;;;12.22;61.19
60918;BME280;46792;38.854;-9.384;2023-02-17T03:29:45;100315.78;;;12.31;60.95
60918;BME280;46792;38.854;-9.384;2023-02-17T03:31:46;100316.56;;;12.26;60.87
60918;BME280;46792;38.854;-9.384;2023-02-17T03:34:05;100304.59;;;12.22;61.27
60918;BME280;46792;38.854;-9.384;2023-02-17T03:36:06;100295.88;;;12.15;61.49
60918;BME280;46792;38.854;-9.384;2023-02-17T03:38:07;100292.91;;;12.16;61.39
60918;BME280;46792;38.854;-9.384;2023-02-17T03:40:08;100300.00;;;12.23;60.97
60918;BME280;46792;38.854;-9.384;2023-02-17T03:42:09;100300.47;;;12.14;60.80
60918;BME280;46792;38.854;-9.384;2023-02-17T03:44:10;100299.38;;;12.15;60.79
60918;BME280;46792;38.854;-9.384;2023-02-17T03:46:12;100291.03;;;12.17;60.73
60918;BME280;46792;38.854;-9.384;2023-02-17T03:48:13;100297.25;;;12.17;61.03
60918;BME280;46792;38.854;-9.384;2023-02-17T03:50:13;100295.03;;;12.14;61.20
60918;BME280;46792;38.854;-9.384;2023-02-17T03:52:14;100299.91;;;12.12;61.09
60918;BME280;46792;38.854;-9.384;2023-02-17T03:54:15;100299.03;;;12.07;61.48
60918;BME280;46792;38.854;-9.384;2023-02-17T03:56:16;100298.47;;;12.05;61.49
60918;BME280;46792;38.854;-9.384;2023-02-17T03:58:17;100311.50;;;12.08;61.30
60918;BME280;46792;38.854;-9.384;2023-02-17T04:00:20;100306.91;;;12.08;61.00
60918;BME280;46792;38.854;-9.384;2023-02-17T04:02:24;100301.44;;;12.03;61.12
60918;BME280;46792;38.854;-9.384;2023-02-17T04:04:24;100295.72;;;11.99;61.06
60918;BME280;46792;38.854;-9.384;2023-02-17T04:06:25;100298.16;;;12.01;60.89
60918;BME280;46792;38.854;-9.384;2023-02-17T04:08:26;100289.94;;;11.96;61.06
60918;BME280;46792;38.854;-9.384;2023-02-17T04:10:27;100286.53;;;12.00;60.70
60918;BME280;46792;38.854;-9.384;2023-02-17T04:12:28;100286.53;;;12.00;60.57
60918;BME280;46792;38.854;-9.384;2023-02-17T04:14:28;100280.78;;;11.97;60.58
60918;BME280;46792;38.854;-9.384;2023-02-17T04:19:06;100274.88;;;12.00;60.12
60918;BME280;46792;38.854;-9.384;2023-02-17T04:21:06;100280.47;;;11.93;60.57
60918;BME280;46792;38.854;-9.384;2023-02-17T04:23:07;100270.72;;;11.92;60.84
60918;BME280;46792;38.854;-9.384;2023-02-17T04:25:08;100283.00;;;12.00;60.18
60918;BME280;46792;38.854;-9.384;2023-02-17T04:27:08;100285.47;;;12.01;60.08
60918;BME280;46792;38.854;-9.384;2023-02-17T04:29:09;100289.47;;;11.99;59.86
60918;BME280;46792;38.854;-9.384;2023-02-17T04:31:10;100277.53;;;11.95;60.11
60918;BME280;46792;38.854;-9.384;2023-02-17T04:33:10;100283.75;;;11.95;60.02
60918;BME280;46792;38.854;-9.384;2023-02-17T04:35:33;100278.59;;;11.94;60.32
60918;BME280;46792;38.854;-9.384;2023-02-17T04:37:45;100272.84;;;11.90;60.43
60918;BME280;46792;38.854;-9.384;2023-02-17T04:39:45;100271.69;;;11.81;60.46
60918;BME280;46792;38.854;-9.384;2023-02-17T04:41:46;100279.03;;;11.85;60.35
60918;BME280;46792;38.854;-9.384;2023-02-17T04:43:47;100277.41;;;11.84;60.24
60918;BME280;46792;38.854;-9.384;2023-02-17T04:45:47;100273.31;;;11.82;60.40
60918;BME280;46792;38.854;-9.384;2023-02-17T04:48:06;100274.84;;;11.72;60.62
60918;BME280;46792;38.854;-9.384;2023-02-17T04:50:08;100271.88;;;11.74;60.43
60918;BME280;46792;38.854;-9.384;2023-02-17T04:52:09;100277.28;;;11.74;60.30
60918;BME280;46792;38.854;-9.384;2023-02-17T04:54:09;100270.31;;;11.78;60.11
60918;BME280;46792;38.854;-9.384;2023-02-17T04:56:10;100267.63;;;11.78;59.90
60918;BME280;46792;38.854;-9.384;2023-02-17T04:58:29;100266.97;;;11.71;59.70
60918;BME280;46792;38.854;-9.384;2023-02-17T05:00:30;100270.81;;;11.75;59.39
60918;BME280;46792;38.854;-9.384;2023-02-17T05:02:30;100271.81;;;11.69;59.69
60918;BME280;46792;38.854;-9.384;2023-02-17T05:04:31;100272.97;;;11.73;59.82
60918;BME280;46792;38.854;-9.384;2023-02-17T05:06:31;100269.38;;;11.67;59.77
60918;BME280;46792;38.854;-9.384;2023-02-17T05:08:32;100273.38;;;11.65;59.75
60918;BME280;46792;38.854;-9.384;2023-02-17T05:10:34;100258.81;;;11.66;59.45
60918;BME280;46792;38.854;-9.384;2023-02-17T05:12:34;100265.59;;;11.68;59.63
60918;BME280;46792;38.854;-9.384;2023-02-17T05:14:35;100268.56;;;11.67;59.72
60918;BME280;46792;38.854;-9.384;2023-02-17T05:16:36;100267.38;;;11.57;59.89
60918;BME280;46792;38.854;-9.384;2023-02-17T05:18:37;100261.47;;;11.61;59.54
60918;BME280;46792;38.854;-9.384;2023-02-17T05:20:37;100264.75;;;11.63;59.53
60918;BME280;46792;38.854;-9.384;2023-02-17T05:22:38;100268.13;;;11.53;59.85
60918;BME280;46792;38.854;-9.384;2023-02-17T05:24:39;100272.63;;;11.47;60.09
60918;BME280;46792;38.854;-9.384;2023-02-17T05:26:39;100271.34;;;11.50;60.03
60918;BME280;46792;38.854;-9.384;2023-02-17T05:28:40;100274.84;;;11.50;60.22
60918;BME280;46792;38.854;-9.384;2023-02-17T05:30:41;100272.63;;;11.47;60.00
60918;BME280;46792;38.854;-9.384;2023-02-17T05:32:41;100269.41;;;11.45;60.03
60918;BME280;46792;38.854;-9.384;2023-02-17T05:34:42;100269.81;;;11.37;60.14
60918;BME280;46792;38.854;-9.384;2023-02-17T05:36:43;100278.56;;;11.44;59.85
60918;BME280;46792;38.854;-9.384;2023-02-17T05:39:02;100282.34;;;11.43;60.05
60918;BME280;46792;38.854;-9.384;2023-02-17T05:41:03;100279.88;;;11.41;59.75
60918;BME280;46792;38.854;-9.384;2023-02-17T05:43:04;100284.22;;;11.43;59.87
60918;BME280;46792;38.854;-9.384;2023-02-17T05:45:05;100287.78;;;11.48;59.87
60918;BME280;46792;38.854;-9.384;2023-02-17T05:47:24;100286.63;;;11.39;59.96
60918;BME280;46792;38.854;-9.384;2023-02-17T05:49:24;100289.56;;;11.37;59.85
60918;BME280;46792;38.854;-9.384;2023-02-17T05:51:25;100291.84;;;11.46;59.60
60918;BME280;46792;38.854;-9.384;2023-02-17T05:53:26;100298.06;;;11.46;60.01
60918;BME280;46792;38.854;-9.384;2023-02-17T05:55:26;100303.47;;;11.46;60.15
60918;BME280;46792;38.854;-9.384;2023-02-17T05:57:27;100307.06;;;11.52;59.54
60918;BME280;46792;38.854;-9.384;2023-02-17T05:59:27;100310.19;;;11.44;59.78
60918;BME280;46792;38.854;-9.384;2023-02-17T06:01:43;100303.13;;;11.43;59.56
60918;BME280;46792;38.854;-9.384;2023-02-17T06:03:43;100304.72;;;11.38;60.06
60918;BME280;46792;38.854;-9.384;2023-02-17T06:05:44;100305.09;;;11.47;59.85
60918;BME280;46792;38.854;-9.384;2023-02-17T06:07:45;100299.31;;;11.38;59.81
60918;BME280;46792;38.854;-9.384;2023-02-17T06:09:45;100304.59;;;11.50;59.23
60918;BME280;46792;38.854;-9.384;2023-02-17T06:11:46;100311.06;;;11.49;59.59
60918;BME280;46792;38.854;-9.384;2023-02-17T06:13:46;100312.47;;;11.52;59.49
60918;BME280;46792;38.854;-9.384;2023-02-17T06:15:50;100318.38;;;11.49;59.49
60918;BME280;46792;38.854;-9.384;2023-02-17T06:17:51;100320.00;;;11.50;59.27
60918;BME280;46792;38.854;-9.384;2023-02-17T06:19:51;100325.66;;;11.48;59.33
60918;BME280;46792;38.854;-9.384;2023-02-17T06:21:52;100329.50;;;11.52;59.20
60918;BME280;46792;38.854;-9.384;2023-02-17T06:23:52;100328.44;;;11.53;59.00
60918;BME280;46792;38.854;-9.384;2023-02-17T06:25:53;100326.22;;;11.50;58.85
60918;BME280;46792;38.854;-9.384;2023-02-17T06:27:55;100323.69;;;11.44;59.17
60918;BME280;46792;38.854;-9.384;2023-02-17T06:29:55;100319.50;;;11.53;59.16
60918;BME280;46792;38.854;-9.384;2023-02-17T06:32:05;100315.59;;;11.44;59.20
60918;BME280;46792;38.854;-9.384;2023-02-17T06:34:06;100316.63;;;11.37;59.38
60918;BME280;46792;38.854;-9.384;2023-02-17T06:36:07;100309.03;;;11.39;59.24
60918;BME280;46792;38.854;-9.384;2023-02-17T06:38:07;100312.00;;;11.38;59.51
60918;BME280;46792;38.854;-9.384;2023-02-17T06:40:08;100311.69;;;11.34;59.57
60918;BME280;46792;38.854;-9.384;2023-02-17T06:42:09;100313.00;;;11.32;59.83
60918;BME280;46792;38.854;-9.384;2023-02-17T06:46:48;100316.78;;;11.31;59.74
60918;BME280;46792;38.854;-9.384;2023-02-17T06:48:49;100314.00;;;11.25;59.93
60918;BME280;46792;38.854;-9.384;2023-02-17T06:50:49;100319.16;;;11.27;59.81
60918;BME280;46792;38.854;-9.384;2023-02-17T06:52:50;100320.75;;;11.23;59.98
60918;BME280;46792;38.854;-9.384;2023-02-17T06:54:50;100333.00;;;11.31;59.61
60918;BME280;46792;38.854;-9.384;2023-02-17T06:56:51;100326.78;;;11.30;59.64
60918;BME280;46792;38.854;-9.384;2023-02-17T06:58:52;100342.00;;;11.36;59.58
60918;BME280;46792;38.854;-9.384;2023-02-17T07:00:55;100330.84;;;11.33;59.73
60918;BME280;46792;38.854;-9.384;2023-02-17T07:02:56;100332.50;;;11.34;59.55
60918;BME280;46792;38.854;-9.384;2023-02-17T07:04:56;100329.41;;;11.25;59.53
60918;BME280;46792;38.854;-9.384;2023-02-17T07:09:50;100354.25;;;11.22;60.06
60918;BME280;46792;38.854;-9.384;2023-02-17T07:11:51;100340.72;;;11.22;60.12
60918;BME280;46792;38.854;-9.384;2023-02-17T07:13:51;100349.63;;;11.22;60.05
60918;BME280;46792;38.854;-9.384;2023-02-17T07:15:55;100353.97;;;11.23;60.08
60918;BME280;46792;38.854;-9.384;2023-02-17T07:17:56;100351.84;;;11.25;59.72
60918;BME280;46792;38.854;-9.384;2023-02-17T07:19:56;100348.31;;;11.25;59.56
60918;BME280;46792;38.854;-9.384;2023-02-17T07:21:57;100345.38;;;11.26;59.90
60918;BME280;46792;38.854;-9.384;2023-02-17T07:23:57;100355.34;;;11.26;59.73
60918;BME280;46792;38.854;-9.384;2023-02-17T07:28:37;100360.19;;;11.24;59.68
60918;BME280;46792;38.854;-9.384;2023-02-17T07:30:39;100355.88;;;11.23;59.71
60918;BME280;46792;38.854;-9.384;2023-02-17T07:32:40;100350.28;;;11.30;59.56
60918;BME280;46792;38.854;-9.384;2023-02-17T07:34:59;100360.53;;;11.28;59.39
60918;BME280;46792;38.854;-9.384;2023-02-17T07:37:00;100357.25;;;11.25;59.56
60918;BME280;46792;38.854;-9.384;2023-02-17T07:39:02;100356.59;;;11.18;59.37
60918;BME280;46792;38.854;-9.384;2023-02-17T07:41:11;100362.34;;;11.22;59.38
60918;BME280;46792;38.854;-9.384;2023-02-17T07:43:12;100359.88;;;11.20;59.61
60918;BME280;46792;38.854;-9.384;2023-02-17T07:45:12;100373.97;;;11.22;59.66
60918;BME280;46792;38.854;-9.384;2023-02-17T07:52:10;100379.72;;;11.09;60.51
60918;BME280;46792;38.854;-9.384;2023-02-17T07:54:11;100377.25;;;11.07;60.32
60918;BME280;46792;38.854;-9.384;2023-02-17T07:56:14;100374.31;;;11.09;60.31
60918;BME280;46792;38.854;-9.384;2023-02-17T07:58:14;100372.19;;;11.11;60.58
60918;BME280;46792;38.854;-9.384;2023-02-17T08:00:16;100367.84;;;11.10;60.41
60918;BME280;46792;38.854;-9.384;2023-02-17T08:02:17;100368.91;;;11.09;60.34
60918;BME280;46792;38.854;-9.384;2023-02-17T08:04:17;100373.72;;;11.07;60.32
60918;BME280;46792;38.854;-9.384;2023-02-17T08:06:23;100369.97;;;11.08;60.28
60918;BME280;46792;38.854;-9.384;2023-02-17T08:08:24;100366.19;;;11.09;60.53
60918;BME280;46792;38.854;-9.384;2023-02-17T08:10:43;100369.03;;;11.19;59.55
60918;BME280;46792;38.854;-9.384;2023-02-17T08:13:08;100362.75;;;11.14;60.18
60918;BME280;46792;38.854;-9.384;2023-02-17T08:15:19;100350.78;;;11.26;59.00
60918;BME280;46792;38.854;-9.384;2023-02-17T08:17:19;100349.63;;;11.22;59.41
60918;BME280;46792;38.854;-9.384;2023-02-17T08:19:20;100345.22;;;11.16;59.66
60918;BME280;46792;38.854;-9.384;2023-02-17T08:21:22;100353.72;;;11.25;59.47
60918;BME280;46792;38.854;-9.384;2023-02-17T08:23:23;100346.94;;;11.22;59.27
60918;BME280;46792;38.854;-9.384;2023-02-17T08:25:24;100348.56;;;11.23;59.46
60918;BME280;46792;38.854;-9.384;2023-02-17T08:27:24;100355.63;;;11.24;59.75
60918;BME280;46792;38.854;-9.384;2023-02-17T08:29:25;100356.44;;;11.25;59.63
60918;BME280;46792;38.854;-9.384;2023-02-17T08:31:31;100357.66;;;11.34;59.77
60918;BME280;46792;38.854;-9.384;2023-02-17T08:33:32;100363.28;;;11.33;59.67
60918;BME280;46792;38.854;-9.384;2023-02-17T08:35:32;100367.63;;;11.34;59.54
60918;BME280;46792;38.854;-9.384;2023-02-17T08:37:35;100369.72;;;11.26;59.80
60918;BME280;46792;38.854;-9.384;2023-02-17T08:39:36;100371.84;;;11.24;59.82
60918;BME280;46792;38.854;-9.384;2023-02-17T08:41:38;100365.09;;;11.27;59.75
60918;BME280;46792;38.854;-9.384;2023-02-17T08:43:39;100353.50;;;11.26;59.49
60918;BME280;46792;38.854;-9.384;2023-02-17T08:45:40;100374.09;;;11.33;59.56
60918;BME280;46792;38.854;-9.384;2023-02-17T08:47:41;100377.78;;;11.44;59.50
60918;BME280;46792;38.854;-9.384;2023-02-17T08:49:42;100380.25;;;11.45;59.40
60918;BME280;46792;38.854;-9.384;2023-02-17T08:51:43;100376.97;;;11.43;59.22
60918;BME280;46792;38.854;-9.384;2023-02-17T08:53:44;100371.88;;;11.47;59.54
60918;BME280;46792;38.854;-9.384;2023-02-17T08:55:46;100369.47;;;11.50;59.69
60918;BME280;46792;38.854;-9.384;2023-02-17T08:57:46;100379.19;;;11.46;59.38
60918;BME280;46792;38.854;-9.384;2023-02-17T08:59:47;100375.38;;;11.47;59.10
60918;BME280;46792;38.854;-9.384;2023-02-17T09:01:48;100364.53;;;11.42;59.45
60918;BME280;46792;38.854;-9.384;2023-02-17T09:03:51;100376.97;;;11.43;59.13
60918;BME280;46792;38.854;-9.384;2023-02-17T09:05:56;100381.06;;;11.46;59.52
60918;BME280;46792;38.854;-9.384;2023-02-17T09:07:57;100376.72;;;11.45;59.76
60918;BME280;46792;38.854;-9.384;2023-02-17T09:09:58;100381.94;;;11.51;59.69
60918;BME280;46792;38.854;-9.384;2023-02-17T09:12:00;100380.28;;;11.50;59.98
60918;BME280;46792;38.854;-9.384;2023-02-17T09:14:00;100380.78;;;11.47;59.60
60918;BME280;46792;38.854;-9.384;2023-02-17T09:16:02;100387.91;;;11.53;59.54
60918;BME280;46792;38.854;-9.384;2023-02-17T09:18:03;100394.16;;;11.54;59.51
60918;BME280;46792;38.854;-9.384;2023-02-17T09:20:05;100396.03;;;11.53;59.59
60918;BME280;46792;38.854;-9.384;2023-02-17T09:22:06;100389.56;;;11.54;59.52
60918;BME280;46792;38.854;-9.384;2023-02-17T09:24:06;100397.09;;;11.52;59.72
60918;BME280;46792;38.854;-9.384;2023-02-17T09:26:10;100390.13;;;11.56;59.85
60918;BME280;46792;38.854;-9.384;2023-02-17T09:28:12;100385.72;;;11.50;59.70
60918;BME280;46792;38.854;-9.384;2023-02-17T09:30:15;100387.41;;;11.56;59.87
60918;BME280;46792;38.854;-9.384;2023-02-17T09:32:16;100384.16;;;11.54;60.02
60918;BME280;46792;38.854;-9.384;2023-02-17T09:34:16;100386.34;;;11.57;59.91
60918;BME280;46792;38.854;-9.384;2023-02-17T09:36:21;100382.81;;;11.57;59.84
60918;BME280;46792;38.854;-9.384;2023-02-17T09:38:22;100387.50;;;11.62;59.86
60918;BME280;46792;38.854;-9.384;2023-02-17T09:40:46;100389.50;;;11.71;59.94
60918;BME280;46792;38.854;-9.384;2023-02-17T09:42:48;100389.88;;;11.80;58.79
60918;BME280;46792;38.854;-9.384;2023-02-17T09:44:58;100390.94;;;11.79;58.86
60918;BME280;46792;38.854;-9.384;2023-02-17T09:47:05;100383.97;;;11.83;59.30
60918;BME280;46792;38.854;-9.384;2023-02-17T09:49:15;100388.38;;;11.90;59.02
60918;BME280;46792;38.854;-9.384;2023-02-17T09:51:29;100393.94;;;12.00;58.69
60918;BME280;46792;38.854;-9.384;2023-02-17T09:53:43;100390.25;;;12.06;58.89
60918;BME280;46792;38.854;-9.384;2023-02-17T09:55:50;100387.56;;;12.11;58.48
60918;BME280;46792;38.854;-9.384;2023-02-17T09:58:06;100396.03;;;12.15;58.17
60918;BME280;46792;38.854;-9.384;2023-02-17T10:00:14;100395.81;;;12.22;57.75
60918;BME280;46792;38.854;-9.384;2023-02-17T10:02:26;100393.50;;;12.30;57.87
60918;BME280;46792;38.854;-9.384;2023-02-17T10:04:42;100391.66;;;12.36;57.79
60918;BME280;46792;38.854;-9.384;2023-02-17T10:06:53;100386.28;;;12.41;57.59
60918;BME280;46792;38.854;-9.384;2023-02-17T10:13:26;100381.25;;;12.83;56.68
60918;BME280;46792;38.854;-9.384;2023-02-17T10:15:35;100383.50;;;12.96;56.49
60918;BME280;46792;38.854;-9.384;2023-02-17T10:19:54;100387.56;;;13.31;54.34
60918;BME280;46792;38.854;-9.384;2023-02-17T10:22:13;100375.19;;;13.46;54.34
60918;BME280;46792;38.854;-9.384;2023-02-17T10:24:14;100376.34;;;13.60;53.68
60918;BME280;46792;38.854;-9.384;2023-02-17T10:31:22;100376.28;;;14.08;53.80
60918;BME280;46792;38.854;-9.384;2023-02-17T10:33:34;100378.22;;;14.13;53.34
60918;BME280;46792;38.854;-9.384;2023-02-17T10:35:51;100389.63;;;14.20;52.25
60918;BME280;46792;38.854;-9.384;2023-02-17T10:38:10;100396.66;;;14.11;51.80
60918;BME280;46792;38.854;-9.384;2023-02-17T10:40:19;100384.41;;;14.03;51.99
60918;BME280;46792;38.854;-9.384;2023-02-17T10:42:24;100379.50;;;14.00;52.35
60918;BME280;46792;38.854;-9.384;2023-02-17T10:44:26;100375.44;;;13.97;53.14
60918;BME280;46792;38.854;-9.384;2023-02-17T10:46:28;100381.69;;;13.93;52.68
60918;BME280;46792;38.854;-9.384;2023-02-17T10:48:34;100390.59;;;13.88;52.64
60918;BME280;46792;38.854;-9.384;2023-02-17T10:50:40;100380.31;;;13.95;53.20
60918;BME280;46792;38.854;-9.384;2023-02-17T10:52:41;100381.19;;;14.11;53.73
60918;BME280;46792;38.854;-9.384;2023-02-17T10:54:53;100379.06;;;14.34;53.08
60918;BME280;46792;38.854;-9.384;2023-02-17T10:57:00;100369.09;;;14.71;52.38
60918;BME280;46792;38.854;-9.384;2023-02-17T10:59:10;100365.03;;;14.84;51.60
60918;BME280;46792;38.854;-9.384;2023-02-17T11:01:13;100355.47;;;15.02;51.32
60918;BME280;46792;38.854;-9.384;2023-02-17T11:03:24;100352.22;;;15.05;50.05
60918;BME280;46792;38.854;-9.384;2023-02-17T11:05:29;100339.72;;;15.09;49.37
60918;BME280;46792;38.854;-9.384;2023-02-17T11:07:36;100340.28;;;14.90;49.32
60918;BME280;46792;38.854;-9.384;2023-02-17T11:09:49;100353.03;;;14.95;50.08
60918;BME280;46792;38.854;-9.384;2023-02-17T11:11:58;100353.59;;;14.92;50.90
60918;BME280;46792;38.854;-9.384;2023-02-17T11:14:19;100344.88;;;14.95;50.66
60918;BME280;46792;38.854;-9.384;2023-02-17T11:16:43;100334.28;;;14.94;51.00
60918;BME280;46792;38.854;-9.384;2023-02-17T11:18:47;100326.94;;;14.94;51.19
60918;BME280;46792;38.854;-9.384;2023-02-17T11:21:00;100321.19;;;15.16;50.99
60918;BME280;46792;38.854;-9.384;2023-02-17T11:25:17;100310.47;;;15.56;49.27
60918;BME280;46792;38.854;-9.384;2023-02-17T11:27:23;100313.13;;;15.72;48.99
60918;BME280;46792;38.854;-9.384;2023-02-17T11:29:25;100330.53;;;15.76;49.22
60918;BME280;46792;38.854;-9.384;2023-02-17T11:31:28;100320.16;;;15.83;49.79
60918;BME280;46792;38.854;-9.384;2023-02-17T11:33:35;100339.22;;;15.88;49.08
60918;BME280;46792;38.854;-9.384;2023-02-17T11:37:41;100335.78;;;16.17;48.34
60918;BME280;46792;38.854;-9.384;2023-02-17T11:39:43;100335.47;;;16.24;48.17
60918;BME280;46792;38.854;-9.384;2023-02-17T11:41:44;100338.47;;;16.22;47.59
60918;BME280;46792;38.854;-9.384;2023-02-17T11:43:53;100331.38;;;16.21;48.42
60918;BME280;46792;38.854;-9.384;2023-02-17T11:48:37;100334.00;;;16.37;49.38
60918;BME280;46792;38.854;-9.384;2023-02-17T11:53:36;100332.19;;;16.27;48.14
60918;BME280;46792;38.854;-9.384;2023-02-17T11:56:16;100326.78;;;16.22;48.21